createdAt,value
2023-12-05T00:00:52.000Z,992.8
2023-12-05T00:02:08.000Z,992.7
2023-12-05T00:03:24.000Z,992.7
2023-12-05T00:04:41.000Z,992.6
2023-12-05T00:05:57.000Z,992.7
2023-12-05T00:07:13.000Z,992.7
2023-12-05T00:08:29.000Z,992.7
2023-12-05T00:09:44.000Z,992.7
2023-12-05T00:11:01.000Z,992.7
2023-12-05T00:12:17.000Z,992.6
2023-12-05T00:13:33.000Z,992.6
2023-12-05T00:14:49.000Z,992.6
2023-12-05T00:16:05.000Z,992.7
2023-12-05T00:17:22.000Z,992.7
2023-12-05T00:18:38.000Z,992.6
2023-12-05T00:19:54.000Z,992.6
2023-12-05T00:21:10.000Z,992.6
2023-12-05T00:22:26.000Z,992.6
2023-12-05T00:23:43.000Z,992.6
2023-12-05T00:24:59.000Z,992.6
2023-12-05T00:26:14.000Z,992.6
2023-12-05T00:27:30.000Z,992.7
2023-12-05T00:28:46.000Z,992.6
2023-12-05T00:30:02.000Z,992.7
2023-12-05T00:31:19.000Z,992.6
2023-12-05T00:32:35.000Z,992.6
2023-12-05T00:33:51.000Z,992.6
2023-12-05T00:35:07.000Z,992.6
2023-12-05T00:36:23.000Z,992.5
2023-12-05T00:37:40.000Z,992.6
2023-12-05T00:38:56.000Z,992.5
2023-12-05T00:40:12.000Z,992.5
2023-12-05T00:41:28.000Z,992.5
2023-12-05T00:42:43.000Z,992.5
2023-12-05T00:44:00.000Z,992.4
2023-12-05T00:45:16.000Z,992.4
2023-12-05T00:46:32.000Z,992.4
2023-12-05T00:47:48.000Z,992.3
2023-12-05T00:49:05.000Z,992.4
2023-12-05T00:50:21.000Z,992.3
2023-12-05T00:51:37.000Z,992.4
2023-12-05T00:52:53.000Z,992.4
2023-12-05T00:54:09.000Z,992.4
2023-12-05T00:55:25.000Z,992.3
2023-12-05T00:56:42.000Z,992.3
2023-12-05T00:57:58.000Z,992.3
2023-12-05T00:59:13.000Z,992.3
2023-12-05T01:00:29.000Z,992.4
2023-12-05T01:03:02.000Z,992.4
2023-12-05T01:04:18.000Z,992.4
2023-12-05T01:05:34.000Z,992.3
2023-12-05T01:06:50.000Z,992.4
2023-12-05T01:08:06.000Z,992.4
2023-12-05T01:10:39.000Z,992.3
2023-12-05T01:11:55.000Z,992.4
2023-12-05T01:13:11.000Z,992.3
2023-12-05T01:15:44.000Z,992.3
2023-12-05T01:16:59.000Z,992.3
2023-12-05T01:18:14.000Z,992.3
2023-12-05T01:19:30.000Z,992.3
2023-12-05T01:20:46.000Z,992.3
2023-12-05T01:22:03.000Z,992.3
2023-12-05T01:23:19.000Z,992.3
2023-12-05T01:24:35.000Z,992.3
2023-12-05T01:25:51.000Z,992.3
2023-12-05T01:27:07.000Z,992.3
2023-12-05T01:28:24.000Z,992.2
2023-12-05T01:29:39.000Z,992.2
2023-12-05T01:30:54.000Z,992.2
2023-12-05T01:32:10.000Z,992.2
2023-12-05T01:33:26.000Z,992.2
2023-12-05T01:34:43.000Z,992.2
2023-12-05T01:35:59.000Z,992.2
2023-12-05T01:37:15.000Z,992.2
2023-12-05T01:38:31.000Z,992.3
2023-12-05T01:39:47.000Z,992.2
2023-12-05T01:41:04.000Z,992.3
2023-12-05T01:42:20.000Z,992.2
2023-12-05T01:43:36.000Z,992.2
2023-12-05T01:44:52.000Z,992.2
2023-12-05T01:46:08.000Z,992.2
2023-12-05T01:47:24.000Z,992.2
2023-12-05T01:48:40.000Z,992.2
2023-12-05T01:49:56.000Z,992.2
2023-12-05T01:51:12.000Z,992.2
2023-12-05T01:53:45.000Z,992.2
2023-12-05T01:56:17.000Z,992.2
2023-12-05T01:57:33.000Z,992.2
2023-12-05T01:58:49.000Z,992.2
2023-12-05T02:00:05.000Z,992.2
2023-12-05T02:01:22.000Z,992.2
2023-12-05T02:02:38.000Z,992.1
2023-12-05T02:03:53.000Z,992.2
2023-12-05T02:05:09.000Z,992.2
2023-12-05T02:06:25.000Z,992.1
2023-12-05T02:07:42.000Z,992.1
2023-12-05T02:08:58.000Z,992.1
2023-12-05T02:10:14.000Z,992.1
2023-12-05T02:11:30.000Z,992.1
2023-12-05T02:12:46.000Z,992.1
2023-12-05T02:14:02.000Z,992.1
2023-12-05T02:15:18.000Z,992
2023-12-05T02:16:34.000Z,992
2023-12-05T02:17:50.000Z,992.1
2023-12-05T02:19:06.000Z,992.1
2023-12-05T02:20:23.000Z,992
2023-12-05T02:21:39.000Z,991.9
2023-12-05T02:22:55.000Z,992
2023-12-05T02:24:11.000Z,992
2023-12-05T02:25:27.000Z,991.9
2023-12-05T02:26:44.000Z,991.9
2023-12-05T02:28:00.000Z,991.9
2023-12-05T02:29:15.000Z,991.9
2023-12-05T02:31:47.000Z,991.8
2023-12-05T02:33:04.000Z,991.7
2023-12-05T02:34:20.000Z,991.8
2023-12-05T02:35:36.000Z,991.8
2023-12-05T02:36:52.000Z,991.8
2023-12-05T02:38:08.000Z,991.8
2023-12-05T02:39:25.000Z,991.7
2023-12-05T02:40:41.000Z,991.8
2023-12-05T02:41:57.000Z,991.8
2023-12-05T02:43:13.000Z,991.8
2023-12-05T02:44:29.000Z,991.8
2023-12-05T02:45:45.000Z,991.8
2023-12-05T02:47:01.000Z,991.8
2023-12-05T02:48:17.000Z,991.8
2023-12-05T02:49:33.000Z,991.8
2023-12-05T02:50:49.000Z,991.7
2023-12-05T02:52:06.000Z,991.7
2023-12-05T02:53:22.000Z,991.7
2023-12-05T02:54:38.000Z,991.7
2023-12-05T02:55:54.000Z,991.7
2023-12-05T02:57:11.000Z,991.7
2023-12-05T02:58:27.000Z,991.7
2023-12-05T02:59:43.000Z,991.7
2023-12-05T03:00:59.000Z,991.7
2023-12-05T03:02:14.000Z,991.8
2023-12-05T03:03:30.000Z,991.8
2023-12-05T03:04:47.000Z,991.7
2023-12-05T03:06:03.000Z,991.7
2023-12-05T03:07:19.000Z,991.7
2023-12-05T03:09:51.000Z,991.7
2023-12-05T03:11:08.000Z,991.7
2023-12-05T03:12:24.000Z,991.7
2023-12-05T03:13:40.000Z,991.7
2023-12-05T03:14:56.000Z,991.8
2023-12-05T03:17:29.000Z,991.7
2023-12-05T03:18:44.000Z,991.8
2023-12-05T03:20:00.000Z,991.8
2023-12-05T03:22:32.000Z,991.8
2023-12-05T03:23:48.000Z,991.8
2023-12-05T03:25:03.000Z,991.7
2023-12-05T03:26:19.000Z,991.7
2023-12-05T03:27:35.000Z,991.7
2023-12-05T03:28:51.000Z,991.7
2023-12-05T03:30:08.000Z,991.7
2023-12-05T03:31:24.000Z,991.7
2023-12-05T03:32:40.000Z,991.7
2023-12-05T03:33:56.000Z,991.7
2023-12-05T03:35:12.000Z,991.7
2023-12-05T03:36:28.000Z,991.6
2023-12-05T03:37:43.000Z,991.7
2023-12-05T03:38:59.000Z,991.7
2023-12-05T03:40:15.000Z,991.7
2023-12-05T03:41:31.000Z,991.6
2023-12-05T03:42:48.000Z,991.6
2023-12-05T03:44:04.000Z,991.7
2023-12-05T03:45:20.000Z,991.6
2023-12-05T03:47:52.000Z,991.6
2023-12-05T03:49:09.000Z,991.6
2023-12-05T03:50:25.000Z,991.6
2023-12-05T03:51:41.000Z,991.6
2023-12-05T03:52:57.000Z,991.6
2023-12-05T03:54:12.000Z,991.6
2023-12-05T03:55:29.000Z,991.6
2023-12-05T03:56:45.000Z,991.6
2023-12-05T03:58:01.000Z,991.6
2023-12-05T03:59:17.000Z,991.6
2023-12-05T04:00:33.000Z,991.6
2023-12-05T04:01:49.000Z,991.6
2023-12-05T04:03:06.000Z,991.6
2023-12-05T04:04:22.000Z,991.5
2023-12-05T04:05:38.000Z,991.6
2023-12-05T04:06:54.000Z,991.5
2023-12-05T04:08:10.000Z,991.6
2023-12-05T04:09:27.000Z,991.5
2023-12-05T04:10:42.000Z,991.6
2023-12-05T04:11:58.000Z,991.6
2023-12-05T04:13:14.000Z,991.6
2023-12-05T04:14:30.000Z,991.5
2023-12-05T04:15:47.000Z,991.6
2023-12-05T04:17:03.000Z,991.5
2023-12-05T04:18:19.000Z,991.6
2023-12-05T04:19:35.000Z,991.6
2023-12-05T04:20:51.000Z,991.6
2023-12-05T04:22:08.000Z,991.6
2023-12-05T04:23:24.000Z,991.6
2023-12-05T04:25:56.000Z,991.6
2023-12-05T04:27:12.000Z,991.6
2023-12-05T04:28:28.000Z,991.6
2023-12-05T04:29:44.000Z,991.6
2023-12-05T04:31:00.000Z,991.6
2023-12-05T04:32:16.000Z,991.6
2023-12-05T04:33:32.000Z,991.6
2023-12-05T04:34:49.000Z,991.6
2023-12-05T04:36:05.000Z,991.6
2023-12-05T04:38:37.000Z,991.6
2023-12-05T04:39:53.000Z,991.6
2023-12-05T04:41:10.000Z,991.5
2023-12-05T04:42:26.000Z,991.5
2023-12-05T04:43:42.000Z,991.5
2023-12-05T04:44:57.000Z,991.6
2023-12-05T04:46:13.000Z,991.6
2023-12-05T04:47:30.000Z,991.6
2023-12-05T04:48:46.000Z,991.6
2023-12-05T04:50:02.000Z,991.6
2023-12-05T04:51:18.000Z,991.6
2023-12-05T04:52:34.000Z,991.6
2023-12-05T04:53:51.000Z,991.6
2023-12-05T04:55:07.000Z,991.6
2023-12-05T04:57:39.000Z,991.6
2023-12-05T04:58:55.000Z,991.6
2023-12-05T05:00:12.000Z,991.6
2023-12-05T05:01:27.000Z,991.6
2023-12-05T05:02:43.000Z,991.6
2023-12-05T05:03:59.000Z,991.6
2023-12-05T05:05:15.000Z,991.6
2023-12-05T05:06:32.000Z,991.6
2023-12-05T05:09:04.000Z,991.6
2023-12-05T05:10:20.000Z,991.5
2023-12-05T05:11:36.000Z,991.6
2023-12-05T05:12:53.000Z,991.5
2023-12-05T05:14:09.000Z,991.5
2023-12-05T05:16:41.000Z,991.6
2023-12-05T05:17:56.000Z,991.5
2023-12-05T05:19:12.000Z,991.6
2023-12-05T05:20:28.255Z,991.6
2023-12-05T05:21:44.000Z,991.6
2023-12-05T05:23:00.000Z,991.6
2023-12-05T05:24:16.000Z,991.6
2023-12-05T05:25:33.000Z,991.6
2023-12-05T05:26:49.000Z,991.6
2023-12-05T05:28:05.000Z,991.6
2023-12-05T05:29:21.000Z,991.6
2023-12-05T05:30:36.000Z,991.6
2023-12-05T05:31:52.000Z,991.6
2023-12-05T05:33:08.000Z,991.6
2023-12-05T05:34:24.000Z,991.6
2023-12-05T05:35:40.000Z,991.6
2023-12-05T05:36:56.000Z,991.6
2023-12-05T05:38:13.000Z,991.5
2023-12-05T05:39:29.000Z,991.5
2023-12-05T05:40:45.000Z,991.5
2023-12-05T05:42:01.000Z,991.5
2023-12-05T05:43:17.000Z,991.5
2023-12-05T05:44:34.000Z,991.5
2023-12-05T05:45:50.000Z,991.5
2023-12-05T05:47:06.000Z,991.5
2023-12-05T05:48:21.000Z,991.5
2023-12-05T05:49:37.000Z,991.5
2023-12-05T05:50:54.000Z,991.5
2023-12-05T05:52:10.000Z,991.5
2023-12-05T05:54:42.000Z,991.5
2023-12-05T05:55:58.000Z,991.6
2023-12-05T05:57:14.000Z,991.5
2023-12-05T05:58:31.000Z,991.5
2023-12-05T05:59:47.000Z,991.5
2023-12-05T06:01:03.000Z,991.6
2023-12-05T06:02:19.000Z,991.6
2023-12-05T06:03:35.000Z,991.6
2023-12-05T06:04:51.000Z,991.6
2023-12-05T06:07:23.000Z,991.6
2023-12-05T06:08:39.000Z,991.6
2023-12-05T06:09:55.000Z,991.6
2023-12-05T06:11:12.000Z,991.6
2023-12-05T06:12:28.000Z,991.6
2023-12-05T06:13:44.000Z,991.6
2023-12-05T06:15:00.000Z,991.6
2023-12-05T06:16:17.000Z,991.6
2023-12-05T06:17:33.000Z,991.6
2023-12-05T06:20:05.000Z,991.7
2023-12-05T06:21:20.000Z,991.7
2023-12-05T06:22:35.000Z,991.6
2023-12-05T06:23:52.000Z,991.7
2023-12-05T06:25:08.000Z,991.7
2023-12-05T06:26:24.000Z,991.7
2023-12-05T06:27:39.000Z,991.7
2023-12-05T06:28:55.000Z,991.6
2023-12-05T06:30:12.000Z,991.6
2023-12-05T06:32:44.000Z,991.6
2023-12-05T06:34:00.000Z,991.6
2023-12-05T06:35:17.000Z,991.6
2023-12-05T06:36:33.000Z,991.6
2023-12-05T06:37:49.000Z,991.6
2023-12-05T06:39:05.000Z,991.6
2023-12-05T06:40:21.000Z,991.6
2023-12-05T06:41:37.000Z,991.7
2023-12-05T06:42:54.000Z,991.6
2023-12-05T06:45:25.000Z,991.6
2023-12-05T06:46:40.000Z,991.6
2023-12-05T06:47:55.000Z,991.6
2023-12-05T06:49:12.000Z,991.6
2023-12-05T06:50:28.000Z,991.6
2023-12-05T06:51:44.000Z,991.6
2023-12-05T06:53:00.000Z,991.6
2023-12-05T06:54:16.000Z,991.7
2023-12-05T06:55:33.000Z,991.6
2023-12-05T06:56:49.000Z,991.7
2023-12-05T06:58:05.000Z,991.7
2023-12-05T06:59:20.000Z,991.7
2023-12-05T07:00:35.000Z,991.7
2023-12-05T07:01:52.000Z,991.7
2023-12-05T07:03:08.000Z,991.7
2023-12-05T07:04:24.000Z,991.7
2023-12-05T07:05:40.000Z,991.7
2023-12-05T07:06:56.000Z,991.7
2023-12-05T07:08:13.000Z,991.8
2023-12-05T07:10:45.000Z,991.8
2023-12-05T07:12:01.000Z,991.9
2023-12-05T07:13:17.000Z,991.9
2023-12-05T07:14:34.000Z,991.8
2023-12-05T07:15:50.000Z,991.9
2023-12-05T07:17:05.000Z,991.8
2023-12-05T07:18:21.000Z,991.9
2023-12-05T07:19:37.000Z,991.9
2023-12-05T07:20:54.000Z,991.9
2023-12-05T07:22:10.000Z,991.9
2023-12-05T07:23:26.000Z,991.9
2023-12-05T07:24:42.000Z,991.9
2023-12-05T07:25:57.000Z,991.9
2023-12-05T07:27:13.000Z,992
2023-12-05T07:28:29.000Z,991.9
2023-12-05T07:29:45.000Z,992
2023-12-05T07:31:01.000Z,992
2023-12-05T07:32:17.000Z,992
2023-12-05T07:33:34.000Z,992.1
2023-12-05T07:34:50.000Z,992
2023-12-05T07:36:06.000Z,992
2023-12-05T07:37:22.000Z,992
2023-12-05T07:38:38.000Z,992.1
2023-12-05T07:39:55.000Z,992.1
2023-12-05T07:41:11.000Z,992.1
2023-12-05T07:42:27.000Z,992.1
2023-12-05T07:43:42.000Z,992.2
2023-12-05T07:44:58.000Z,992.2
2023-12-05T07:46:15.000Z,992.2
2023-12-05T07:48:47.000Z,992.2
2023-12-05T07:50:03.000Z,992.2
2023-12-05T07:51:19.000Z,992.2
2023-12-05T07:52:36.000Z,992.3
2023-12-05T07:53:52.000Z,992.2
2023-12-05T07:55:08.000Z,992.2
2023-12-05T07:56:24.000Z,992.2
2023-12-05T07:57:40.000Z,992.2
2023-12-05T07:58:57.000Z,992.2
2023-12-05T08:00:12.000Z,992.3
2023-12-05T08:01:28.000Z,992.3
2023-12-05T08:02:44.000Z,992.2
2023-12-05T08:04:00.000Z,992.3
2023-12-05T08:05:17.000Z,992.2
2023-12-05T08:06:33.000Z,992.3
2023-12-05T08:07:49.000Z,992.3
2023-12-05T08:09:05.000Z,992.3
2023-12-05T08:10:21.000Z,992.3
2023-12-05T08:11:38.000Z,992.3
2023-12-05T08:14:10.000Z,992.3
2023-12-05T08:15:26.000Z,992.3
2023-12-05T08:16:41.000Z,992.3
2023-12-05T08:17:58.000Z,992.3
2023-12-05T08:19:14.000Z,992.3
2023-12-05T08:20:30.000Z,992.3
2023-12-05T08:21:46.000Z,992.4
2023-12-05T08:23:02.000Z,992.4
2023-12-05T08:24:19.000Z,992.4
2023-12-05T08:26:51.000Z,992.4
2023-12-05T08:28:07.000Z,992.4
2023-12-05T08:29:23.000Z,992.5
2023-12-05T08:30:39.000Z,992.5
2023-12-05T08:31:56.000Z,992.5
2023-12-05T08:33:11.000Z,992.5
2023-12-05T08:34:27.000Z,992.5
2023-12-05T08:35:43.000Z,992.4
2023-12-05T08:36:59.000Z,992.4
2023-12-05T08:39:32.000Z,992.5
2023-12-05T08:40:47.000Z,992.5
2023-12-05T08:42:02.000Z,992.5
2023-12-05T08:43:19.000Z,992.5
2023-12-05T08:44:35.000Z,992.4
2023-12-05T08:45:51.000Z,992.5
2023-12-05T08:47:07.000Z,992.5
2023-12-05T08:48:23.000Z,992.4
2023-12-05T08:49:39.000Z,992.5
2023-12-05T08:50:56.000Z,992.5
2023-12-05T08:52:12.000Z,992.5
2023-12-05T08:53:27.000Z,992.5
2023-12-05T08:54:42.000Z,992.5
2023-12-05T08:55:59.000Z,992.5
2023-12-05T08:57:15.000Z,992.5
2023-12-05T08:58:31.000Z,992.5
2023-12-05T08:59:47.000Z,992.5
2023-12-05T09:01:03.000Z,992.5
2023-12-05T09:02:19.000Z,992.5
2023-12-05T09:04:52.000Z,992.5
2023-12-05T09:06:08.000Z,992.5
2023-12-05T09:07:24.000Z,992.5
2023-12-05T09:08:40.000Z,992.5
2023-12-05T09:09:57.000Z,992.6
2023-12-05T09:11:12.000Z,992.6
2023-12-05T09:12:28.000Z,992.6
2023-12-05T09:13:44.000Z,992.6
2023-12-05T09:15:00.000Z,992.6
2023-12-05T09:17:33.000Z,992.6
2023-12-05T09:18:49.000Z,992.6
2023-12-05T09:20:05.000Z,992.6
2023-12-05T09:21:21.000Z,992.6
2023-12-05T09:22:38.000Z,992.6
2023-12-05T09:23:54.000Z,992.6
2023-12-05T09:25:10.000Z,992.6
2023-12-05T09:26:26.000Z,992.6
2023-12-05T09:27:42.000Z,992.6
2023-12-05T09:30:14.000Z,992.7
2023-12-05T09:31:29.000Z,992.7
2023-12-05T09:32:44.000Z,992.7
2023-12-05T09:34:00.000Z,992.7
2023-12-05T09:35:17.000Z,992.7
2023-12-05T09:36:33.000Z,992.7
2023-12-05T09:37:49.000Z,992.7
2023-12-05T09:40:21.000Z,992.7
2023-12-05T09:42:54.000Z,992.8
2023-12-05T09:44:10.000Z,992.8
2023-12-05T09:45:26.000Z,992.7
2023-12-05T09:46:41.000Z,992.8
2023-12-05T09:47:57.000Z,992.8
2023-12-05T09:49:13.000Z,992.7
2023-12-05T09:50:29.000Z,992.7
2023-12-05T09:51:45.000Z,992.8
2023-12-05T09:53:01.000Z,992.7
2023-12-05T09:54:18.000Z,992.8
2023-12-05T09:55:34.000Z,992.8
2023-12-05T09:56:50.000Z,992.8
2023-12-05T09:58:06.000Z,992.8
2023-12-05T09:59:21.000Z,992.8
2023-12-05T10:00:37.000Z,992.7
2023-12-05T10:01:53.000Z,992.7
2023-12-05T10:03:09.000Z,992.7
2023-12-05T10:04:25.000Z,992.7
2023-12-05T10:05:41.000Z,992.7
2023-12-05T10:06:58.000Z,992.7
2023-12-05T10:08:14.000Z,992.7
2023-12-05T10:09:30.000Z,992.7
2023-12-05T10:10:46.000Z,992.7
2023-12-05T10:12:02.000Z,992.7
2023-12-05T10:13:18.000Z,992.7
2023-12-05T10:14:33.000Z,992.8
2023-12-05T10:15:49.000Z,992.7
2023-12-05T10:17:05.000Z,992.8
2023-12-05T10:20:54.000Z,992.8
2023-12-05T10:22:10.000Z,992.7
2023-12-05T10:23:26.000Z,992.8
2023-12-05T10:24:42.000Z,992.7
2023-12-05T10:25:59.000Z,992.7
2023-12-05T10:27:15.000Z,992.7
2023-12-05T10:28:30.000Z,992.7
2023-12-05T10:29:45.000Z,992.7
2023-12-05T10:31:01.000Z,992.7
2023-12-05T10:32:18.000Z,992.8
2023-12-05T10:33:34.000Z,992.7
2023-12-05T10:34:50.000Z,992.7
2023-12-05T10:36:06.000Z,992.7
2023-12-05T10:37:22.000Z,992.7
2023-12-05T10:38:39.000Z,992.7
2023-12-05T10:39:55.000Z,992.8
2023-12-05T10:41:10.000Z,992.8
2023-12-05T10:42:25.000Z,992.7
2023-12-05T10:43:41.000Z,992.7
2023-12-05T10:46:14.000Z,992.6
2023-12-05T10:47:30.000Z,992.7
2023-12-05T10:48:46.000Z,992.6
2023-12-05T10:50:02.000Z,992.6
2023-12-05T10:51:19.000Z,992.7
2023-12-05T10:52:35.000Z,992.7
2023-12-05T10:53:51.000Z,992.7
2023-12-05T10:55:07.000Z,992.6
2023-12-05T10:56:23.000Z,992.7
2023-12-05T10:58:56.000Z,992.7
2023-12-05T11:00:11.000Z,992.7
2023-12-05T11:01:26.000Z,992.7
2023-12-05T11:02:42.000Z,992.7
2023-12-05T11:03:59.000Z,992.7
2023-12-05T11:05:15.000Z,992.7
2023-12-05T11:06:31.000Z,992.7
2023-12-05T11:07:47.000Z,992.7
2023-12-05T11:09:03.000Z,992.7
2023-12-05T11:10:20.000Z,992.7
2023-12-05T11:11:36.000Z,992.7
2023-12-05T11:12:51.000Z,992.7
2023-12-05T11:14:06.000Z,992.7
2023-12-05T11:15:22.000Z,992.7
2023-12-05T11:16:39.000Z,992.8
2023-12-05T11:17:55.000Z,992.7
2023-12-05T11:19:11.000Z,992.8
2023-12-05T11:20:27.000Z,992.7
2023-12-05T11:21:43.000Z,992.8
2023-12-05T11:24:16.000Z,992.7
2023-12-05T11:25:32.000Z,992.8
2023-12-05T11:26:48.000Z,992.7
2023-12-05T11:28:04.000Z,992.7
2023-12-05T11:29:20.000Z,992.7
2023-12-05T11:30:36.000Z,992.7
2023-12-05T11:31:52.000Z,992.6
2023-12-05T11:33:08.000Z,992.6
2023-12-05T11:34:24.000Z,992.7
2023-12-05T11:36:57.000Z,992.7
2023-12-05T11:38:12.000Z,992.7
2023-12-05T11:39:27.000Z,992.7
2023-12-05T11:40:43.000Z,992.7
2023-12-05T11:41:59.000Z,992.7
2023-12-05T11:43:16.000Z,992.7
2023-12-05T11:44:32.000Z,992.7
2023-12-05T11:45:48.000Z,992.8
2023-12-05T11:48:20.000Z,992.8
2023-12-05T11:49:37.000Z,992.8
2023-12-05T11:50:53.000Z,992.7
2023-12-05T11:52:09.000Z,992.8
2023-12-05T11:54:41.000Z,992.8
2023-12-05T11:55:57.000Z,992.8
2023-12-05T11:57:12.000Z,992.8
2023-12-05T11:58:28.000Z,992.8
2023-12-05T11:59:44.000Z,992.8
2023-12-05T12:03:33.000Z,992.9
2023-12-05T12:04:49.000Z,992.9
2023-12-05T12:06:05.000Z,992.9
2023-12-05T12:07:21.000Z,992.9
2023-12-05T12:08:38.000Z,992.9
2023-12-05T12:09:54.000Z,992.9
2023-12-05T12:11:10.000Z,992.9
2023-12-05T12:12:26.000Z,993
2023-12-05T12:13:41.000Z,992.9
2023-12-05T12:14:58.000Z,992.9
2023-12-05T12:16:14.000Z,993
2023-12-05T12:18:46.000Z,992.9
2023-12-05T12:20:02.000Z,993
2023-12-05T12:21:19.000Z,992.9
2023-12-05T12:22:35.000Z,992.9
2023-12-05T12:23:51.000Z,993
2023-12-05T12:25:07.000Z,993
2023-12-05T12:26:23.000Z,993
2023-12-05T12:27:40.000Z,993
2023-12-05T12:28:56.000Z,992.9
2023-12-05T12:30:11.000Z,993
2023-12-05T12:31:26.000Z,993
2023-12-05T12:32:42.000Z,993
2023-12-05T12:33:59.000Z,993
2023-12-05T12:35:15.000Z,993
2023-12-05T12:36:31.000Z,993.1
2023-12-05T12:37:47.000Z,993
2023-12-05T12:40:20.000Z,993.1
2023-12-05T12:41:36.000Z,993
2023-12-05T12:42:52.000Z,993
2023-12-05T12:44:08.000Z,993.1
2023-12-05T12:45:24.000Z,993
2023-12-05T12:46:40.000Z,993.1
2023-12-05T12:47:56.000Z,993.1
2023-12-05T12:49:12.000Z,993
2023-12-05T12:50:28.000Z,993.1
2023-12-05T12:53:00.000Z,993.1
2023-12-05T12:54:16.000Z,993.1
2023-12-05T12:55:31.000Z,993.2
2023-12-05T12:56:47.000Z,993.2
2023-12-05T12:58:03.000Z,993.2
2023-12-05T12:59:19.000Z,993.1
2023-12-05T13:00:36.000Z,993.2
2023-12-05T13:01:52.000Z,993.1
2023-12-05T13:03:08.000Z,993.2
2023-12-05T13:05:40.000Z,993.1
2023-12-05T13:06:57.000Z,993.2
2023-12-05T13:08:13.000Z,993.2
2023-12-05T13:09:29.000Z,993.2
2023-12-05T13:10:45.000Z,993.2
2023-12-05T13:12:00.000Z,993.2
2023-12-05T13:13:17.000Z,993.2
2023-12-05T13:14:33.000Z,993.1
2023-12-05T13:17:05.000Z,993.2
2023-12-05T13:18:21.000Z,993.2
2023-12-05T13:19:38.000Z,993.2
2023-12-05T13:20:54.000Z,993.2
2023-12-05T13:22:10.000Z,993.2
2023-12-05T13:23:26.000Z,993.2
2023-12-05T13:25:59.000Z,993.3
2023-12-05T13:27:15.000Z,993.3
2023-12-05T13:28:30.000Z,993.2
2023-12-05T13:31:02.000Z,993.2
2023-12-05T13:32:19.000Z,993.2
2023-12-05T13:33:35.000Z,993.2
2023-12-05T13:34:51.000Z,993.2
2023-12-05T13:36:07.000Z,993.2
2023-12-05T13:37:23.000Z,993.2
2023-12-05T13:38:40.000Z,993.2
2023-12-05T13:39:56.000Z,993.2
2023-12-05T13:41:12.000Z,993.2
2023-12-05T13:42:28.000Z,993.2
2023-12-05T13:43:44.000Z,993.2
2023-12-05T13:45:00.000Z,993.2
2023-12-05T13:46:16.000Z,993.2
2023-12-05T13:48:48.000Z,993.2
2023-12-05T13:50:04.000Z,993.2
2023-12-05T13:51:20.000Z,993.2
2023-12-05T13:52:37.000Z,993.2
2023-12-05T13:53:53.000Z,993.2
2023-12-05T13:55:09.000Z,993.2
2023-12-05T13:56:25.000Z,993.2
2023-12-05T13:57:40.000Z,993.3
2023-12-05T13:58:56.000Z,993.3
2023-12-05T14:00:12.000Z,993.3
2023-12-05T14:01:28.000Z,993.3
2023-12-05T14:02:44.000Z,993.3
2023-12-05T14:04:00.000Z,993.3
2023-12-05T14:05:17.000Z,993.4
2023-12-05T14:06:33.000Z,993.4
2023-12-05T14:09:05.000Z,993.4
2023-12-05T14:10:21.000Z,993.5
2023-12-05T14:11:38.000Z,993.4
2023-12-05T14:12:54.000Z,993.4
2023-12-05T14:14:10.000Z,993.4
2023-12-05T14:15:25.000Z,993.4
2023-12-05T14:16:41.000Z,993.5
2023-12-05T14:17:58.000Z,993.5
2023-12-05T14:19:14.000Z,993.4
2023-12-05T14:20:30.000Z,993.4
2023-12-05T14:21:46.000Z,993.5
2023-12-05T14:23:02.000Z,993.5
2023-12-05T14:24:18.000Z,993.5
2023-12-05T14:25:33.000Z,993.5
2023-12-05T14:26:49.000Z,993.5
2023-12-05T14:28:05.000Z,993.5
2023-12-05T14:29:21.000Z,993.5
2023-12-05T14:30:38.000Z,993.5
2023-12-05T14:31:54.000Z,993.5
2023-12-05T14:33:10.000Z,993.5
2023-12-05T14:34:26.000Z,993.5
2023-12-05T14:35:42.000Z,993.5
2023-12-05T14:36:59.000Z,993.5
2023-12-05T14:38:15.000Z,993.5
2023-12-05T14:39:31.000Z,993.6
2023-12-05T14:40:47.000Z,993.5
2023-12-05T14:42:02.000Z,993.5
2023-12-05T14:43:19.000Z,993.6
2023-12-05T14:44:35.000Z,993.7
2023-12-05T14:47:07.000Z,993.7
2023-12-05T14:48:23.000Z,993.7
2023-12-05T14:49:40.000Z,993.7
2023-12-05T14:50:56.000Z,993.7
2023-12-05T14:52:12.000Z,993.7
2023-12-05T14:53:28.000Z,993.7
2023-12-05T14:54:44.000Z,993.7
2023-12-05T14:56:00.000Z,993.7
2023-12-05T14:57:16.000Z,993.8
2023-12-05T14:58:32.000Z,993.7
2023-12-05T14:59:48.000Z,993.7
2023-12-05T15:01:04.000Z,993.7
2023-12-05T15:02:20.000Z,993.8
2023-12-05T15:03:37.000Z,993.8
2023-12-05T15:04:53.000Z,993.8
2023-12-05T15:06:09.000Z,993.9
2023-12-05T15:07:25.000Z,993.8
2023-12-05T15:08:41.000Z,993.8
2023-12-05T15:09:58.000Z,993.8
2023-12-05T15:11:14.000Z,993.9
2023-12-05T15:12:30.000Z,993.9
2023-12-05T15:13:45.000Z,993.9
2023-12-05T15:15:01.000Z,993.9
2023-12-05T15:16:18.000Z,993.9
2023-12-05T15:17:34.000Z,993.9
2023-12-05T15:18:50.000Z,993.9
2023-12-05T15:20:06.000Z,993.9
2023-12-05T15:21:22.000Z,993.9
2023-12-05T15:22:39.000Z,994
2023-12-05T15:23:55.000Z,994
2023-12-05T15:25:11.000Z,993.9
2023-12-05T15:26:27.000Z,993.9
2023-12-05T15:27:43.000Z,994
2023-12-05T15:29:00.000Z,994
2023-12-05T15:30:15.000Z,994
2023-12-05T15:31:31.000Z,994.1
2023-12-05T15:32:47.000Z,994.1
2023-12-05T15:34:03.000Z,994.1
2023-12-05T15:35:20.000Z,994.1
2023-12-05T15:36:36.000Z,994.1
2023-12-05T15:37:52.000Z,994.2
2023-12-05T15:39:08.000Z,994.2
2023-12-05T15:40:24.000Z,994.2
2023-12-05T15:41:41.000Z,994.2
2023-12-05T15:42:57.000Z,994.3
2023-12-05T15:44:13.000Z,994.3
2023-12-05T15:45:29.000Z,994.3
2023-12-05T15:46:44.000Z,994.3
2023-12-05T15:48:01.000Z,994.3
2023-12-05T15:49:17.000Z,994.3
2023-12-05T15:50:33.000Z,994.3
2023-12-05T15:51:49.000Z,994.3
2023-12-05T15:53:05.000Z,994.3
2023-12-05T15:54:21.000Z,994.4
2023-12-05T15:55:38.000Z,994.4
2023-12-05T15:56:54.000Z,994.4
2023-12-05T15:58:10.000Z,994.5
2023-12-05T15:59:26.000Z,994.4
2023-12-05T16:00:42.000Z,994.4
2023-12-05T16:03:15.000Z,994.5
2023-12-05T16:04:30.000Z,994.5
2023-12-05T16:05:46.000Z,994.5
2023-12-05T16:07:02.000Z,994.6
2023-12-05T16:08:19.000Z,994.6
2023-12-05T16:09:35.000Z,994.7
2023-12-05T16:10:51.000Z,994.7
2023-12-05T16:12:07.000Z,994.7
2023-12-05T16:13:23.000Z,994.8
2023-12-05T16:14:40.000Z,994.8
2023-12-05T16:15:56.000Z,994.8
2023-12-05T16:17:12.000Z,994.8
2023-12-05T16:18:28.000Z,994.8
2023-12-05T16:19:44.000Z,994.9
2023-12-05T16:21:00.000Z,994.9
2023-12-05T16:22:16.000Z,994.8
2023-12-05T16:23:32.000Z,994.9
2023-12-05T16:24:48.000Z,994.9
2023-12-05T16:26:04.000Z,994.9
2023-12-05T16:27:21.000Z,994.9
2023-12-05T16:28:37.000Z,995
2023-12-05T16:29:53.000Z,995
2023-12-05T16:31:09.000Z,995
2023-12-05T16:32:25.000Z,995
2023-12-05T16:33:42.000Z,995
2023-12-05T16:34:58.000Z,995.1
2023-12-05T16:36:14.000Z,995.1
2023-12-05T16:37:29.000Z,995
2023-12-05T16:38:45.000Z,995.1
2023-12-05T16:41:18.000Z,995.1
2023-12-05T16:42:34.000Z,995.2
2023-12-05T16:43:50.000Z,995.2
2023-12-05T16:45:06.000Z,995.2
2023-12-05T16:46:22.000Z,995.2
2023-12-05T16:47:39.000Z,995.2
2023-12-05T16:48:55.000Z,995.1
2023-12-05T16:50:11.000Z,995.2
2023-12-05T16:51:27.000Z,995.2
2023-12-05T16:54:00.000Z,995.3
2023-12-05T16:55:15.000Z,995.3
2023-12-05T16:57:47.000Z,995.3
2023-12-05T16:59:02.000Z,995.3
2023-12-05T17:00:18.000Z,995.3
2023-12-05T17:01:34.000Z,995.3
2023-12-05T17:02:50.000Z,995.3
2023-12-05T17:04:06.000Z,995.3
2023-12-05T17:05:22.000Z,995.3
2023-12-05T17:06:39.000Z,995.4
2023-12-05T17:07:55.000Z,995.4
2023-12-05T17:09:11.000Z,995.4
2023-12-05T17:10:27.000Z,995.4
2023-12-05T17:11:42.000Z,995.4
2023-12-05T17:12:58.000Z,995.4
2023-12-05T17:14:14.000Z,995.4
2023-12-05T17:15:30.000Z,995.4
2023-12-05T17:16:46.000Z,995.5
2023-12-05T17:18:02.000Z,995.5
2023-12-05T17:19:19.000Z,995.6
2023-12-05T17:20:35.000Z,995.6
2023-12-05T17:21:51.000Z,995.7
2023-12-05T17:23:07.000Z,995.6
2023-12-05T17:24:23.000Z,995.7
2023-12-05T17:25:40.000Z,995.7
2023-12-05T17:26:56.000Z,995.7
2023-12-05T17:28:12.000Z,995.7
2023-12-05T17:29:27.000Z,995.7
2023-12-05T17:30:43.000Z,995.7
2023-12-05T17:32:00.000Z,995.8